createdAt,value
2019-03-24T00:01:25.167Z,10.50
2019-03-24T00:03:56.476Z,10.50
2019-03-24T00:06:27.806Z,10.50
2019-03-24T00:08:59.492Z,10.40
2019-03-24T00:11:30.823Z,10.40
2019-03-24T00:14:02.123Z,10.30
2019-03-24T00:16:33.486Z,10.40
2019-03-24T00:19:04.847Z,10.40
2019-03-24T00:21:36.737Z,10.40
2019-03-24T00:24:08.031Z,10.40
2019-03-24T00:26:39.303Z,10.40
2019-03-24T00:29:10.927Z,10.30
2019-03-24T00:31:42.192Z,10.30
2019-03-24T00:34:13.624Z,10.30
2019-03-24T00:36:44.895Z,10.30
2019-03-24T00:39:16.534Z,10.30
2019-03-24T00:41:47.792Z,10.30
2019-03-24T00:44:19.222Z,10.30
2019-03-24T00:46:50.604Z,10.30
2019-03-24T00:49:21.885Z,10.30
2019-03-24T00:51:53.156Z,10.20
2019-03-24T00:54:24.478Z,10.20
2019-03-24T00:56:55.769Z,10.20
2019-03-24T00:59:27.054Z,10.30
2019-03-24T01:01:58.359Z,10.30
2019-03-24T01:04:29.965Z,10.30
2019-03-24T01:07:01.245Z,10.30
2019-03-24T01:09:33.217Z,10.20
2019-03-24T01:12:04.686Z,10.20
2019-03-24T01:14:35.986Z,10.20
2019-03-24T01:17:07.513Z,10.20
2019-03-24T01:19:38.802Z,10.20
2019-03-24T01:22:10.067Z,10.20
2019-03-24T01:24:41.710Z,10.10
2019-03-24T01:27:14.205Z,10.20
2019-03-24T01:29:45.504Z,10.20
2019-03-24T01:32:16.775Z,10.20
2019-03-24T01:34:48.334Z,10.20
2019-03-24T01:37:19.656Z,10.20
2019-03-24T01:39:51.211Z,10.20
2019-03-24T01:42:22.801Z,10.10
2019-03-24T01:44:54.145Z,10.10
2019-03-24T01:47:25.448Z,10.10
2019-03-24T01:49:56.711Z,10.10
2019-03-24T01:52:28.577Z,10.10
2019-03-24T01:54:59.934Z,10.00
2019-03-24T01:57:31.247Z,10.00
2019-03-24T02:00:02.708Z,10.00
2019-03-24T02:02:35.101Z,9.90
2019-03-24T02:05:06.544Z,9.90
2019-03-24T02:07:37.811Z,9.90
2019-03-24T02:10:09.886Z,9.90
2019-03-24T02:12:41.175Z,9.80
2019-03-24T02:15:12.973Z,9.80
2019-03-24T02:17:44.278Z,9.80
2019-03-24T02:20:15.783Z,9.80
2019-03-24T02:22:47.191Z,9.80
2019-03-24T02:25:18.809Z,9.80
2019-03-24T02:27:50.094Z,9.70
2019-03-24T02:30:21.704Z,9.70
2019-03-24T02:32:53.025Z,9.80
2019-03-24T02:35:24.361Z,9.80
2019-03-24T02:37:55.668Z,9.70
2019-03-24T02:40:26.903Z,9.70
2019-03-24T02:42:58.164Z,9.70
2019-03-24T02:45:29.525Z,9.70
2019-03-24T02:48:01.040Z,9.70
2019-03-24T02:50:32.362Z,9.60
2019-03-24T02:53:03.755Z,9.60
2019-03-24T02:55:35.457Z,9.60
2019-03-24T02:58:07.145Z,9.60
2019-03-24T03:00:38.637Z,9.60
2019-03-24T03:03:10.344Z,9.50
2019-03-24T03:05:43.047Z,9.50
2019-03-24T03:08:14.545Z,9.50
2019-03-24T03:10:45.880Z,9.50
2019-03-24T03:13:17.575Z,9.40
2019-03-24T03:15:48.923Z,9.40
2019-03-24T03:18:20.210Z,9.40
2019-03-24T03:20:51.499Z,9.30
2019-03-24T03:23:22.852Z,9.30
2019-03-24T03:25:54.256Z,9.30
2019-03-24T03:28:25.589Z,9.30
2019-03-24T03:30:56.830Z,9.30
2019-03-24T03:33:28.423Z,9.40
2019-03-24T03:35:59.759Z,9.40
2019-03-24T03:38:31.202Z,9.40
2019-03-24T03:41:02.641Z,9.30
2019-03-24T03:43:33.993Z,9.30
2019-03-24T03:46:05.751Z,9.30
2019-03-24T03:48:37.674Z,9.30
2019-03-24T03:51:08.972Z,9.30
2019-03-24T03:53:40.298Z,9.30
2019-03-24T03:56:11.555Z,9.30
2019-03-24T03:58:43.620Z,9.30
2019-03-24T04:01:15.919Z,9.30
2019-03-24T04:03:47.214Z,9.30
2019-03-24T04:06:18.508Z,9.30
2019-03-24T04:08:49.865Z,9.30
2019-03-24T04:11:21.118Z,9.30
2019-03-24T04:13:52.648Z,9.20
2019-03-24T04:16:23.951Z,9.30
2019-03-24T04:18:55.242Z,9.20
2019-03-24T04:21:26.500Z,9.30
2019-03-24T04:23:57.809Z,9.30
2019-03-24T04:26:29.072Z,9.30
2019-03-24T04:29:00.361Z,9.20
2019-03-24T04:31:31.652Z,9.20
2019-03-24T04:34:02.982Z,9.20
2019-03-24T04:36:34.243Z,9.10
2019-03-24T04:39:06.900Z,9.10
2019-03-24T04:41:38.233Z,9.10
2019-03-24T04:44:09.523Z,9.10
2019-03-24T04:46:40.787Z,9.00
2019-03-24T04:49:13.114Z,9.00
2019-03-24T04:51:44.370Z,9.00
2019-03-24T04:54:15.952Z,9.00
2019-03-24T04:56:48.298Z,8.90
2019-03-24T04:59:19.865Z,9.00
2019-03-24T05:01:51.113Z,8.90
2019-03-24T05:04:22.429Z,8.90
2019-03-24T05:06:54.241Z,8.80
2019-03-24T05:09:27.147Z,8.80
2019-03-24T05:11:58.455Z,8.70
2019-03-24T05:14:29.763Z,8.80
2019-03-24T05:17:01.033Z,8.70
2019-03-24T05:19:32.334Z,8.70
2019-03-24T05:22:03.585Z,8.70
2019-03-24T05:24:35.135Z,8.60
2019-03-24T05:27:06.513Z,8.60
2019-03-24T05:29:37.824Z,8.60
2019-03-24T05:32:09.095Z,8.60
2019-03-24T05:34:40.416Z,8.60
2019-03-24T05:37:11.966Z,8.60
2019-03-24T05:39:43.572Z,8.60
2019-03-24T05:42:15.284Z,8.60
2019-03-24T05:44:46.905Z,8.60
2019-03-24T05:47:18.246Z,8.50
2019-03-24T05:49:49.562Z,8.50
2019-03-24T05:52:20.826Z,8.50
2019-03-24T05:54:52.110Z,8.50
2019-03-24T05:57:23.719Z,8.50
2019-03-24T05:59:55.037Z,8.50
2019-03-24T06:02:26.307Z,8.60
2019-03-24T06:04:57.593Z,8.50
2019-03-24T06:07:28.836Z,8.50
2019-03-24T06:10:00.470Z,8.50
2019-03-24T06:12:32.088Z,8.50
2019-03-24T06:15:03.423Z,8.50
2019-03-24T06:17:34.680Z,8.50
2019-03-24T06:20:06.875Z,8.50
2019-03-24T06:22:38.217Z,8.40
2019-03-24T06:25:09.935Z,8.40
2019-03-24T06:27:41.161Z,8.40
2019-03-24T06:30:12.902Z,8.40
2019-03-24T06:32:44.185Z,8.30
2019-03-24T06:35:16.874Z,8.30
2019-03-24T06:37:48.137Z,8.30
2019-03-24T06:40:19.986Z,8.30
2019-03-24T06:42:51.770Z,8.30
2019-03-24T06:45:28.298Z,8.40
2019-03-24T06:47:58.129Z,8.40
2019-03-24T06:50:29.431Z,8.30
2019-03-24T06:53:00.675Z,8.40
2019-03-24T06:55:31.917Z,8.40
2019-03-24T06:58:03.210Z,8.40
2019-03-24T07:00:34.518Z,8.40
2019-03-24T07:03:05.805Z,8.50
2019-03-24T07:05:37.412Z,8.50
2019-03-24T07:08:09.637Z,8.50
2019-03-24T07:10:40.920Z,8.40
2019-03-24T07:13:12.257Z,8.40
2019-03-24T07:15:43.931Z,8.40
2019-03-24T07:18:15.450Z,8.40
2019-03-24T07:20:47.023Z,8.50
2019-03-24T07:23:18.637Z,8.60
2019-03-24T07:25:49.954Z,8.70
2019-03-24T07:28:21.274Z,8.90
2019-03-24T07:30:52.609Z,9.00
2019-03-24T07:33:24.254Z,9.00
2019-03-24T07:35:55.537Z,9.00
2019-03-24T07:38:26.801Z,9.10
2019-03-24T07:40:59.179Z,9.20
2019-03-24T07:43:30.467Z,9.30
2019-03-24T07:46:01.711Z,9.40
2019-03-24T07:48:32.986Z,9.60
2019-03-24T07:51:04.314Z,9.80
2019-03-24T07:53:35.564Z,9.80
2019-03-24T07:56:07.455Z,10.00
2019-03-24T07:58:38.776Z,10.20
2019-03-24T08:01:10.723Z,10.30
2019-03-24T08:03:41.995Z,10.60
2019-03-24T08:06:13.286Z,10.80
2019-03-24T08:08:44.674Z,10.80
2019-03-24T08:11:15.942Z,10.90
2019-03-24T08:13:53.789Z,11.40
2019-03-24T08:16:20.297Z,12.50
2019-03-24T08:18:51.952Z,12.70
2019-03-24T08:21:23.241Z,13.00
2019-03-24T08:23:54.553Z,13.90
2019-03-24T08:26:25.822Z,14.30
2019-03-24T08:28:57.106Z,14.80
2019-03-24T08:31:28.740Z,15.40
2019-03-24T08:34:00.171Z,16.30
2019-03-24T08:36:31.689Z,16.60
2019-03-24T08:39:03.892Z,16.50
2019-03-24T08:41:35.519Z,16.20
2019-03-24T08:44:07.023Z,15.80
2019-03-24T08:46:38.367Z,15.40
2019-03-24T08:49:28.629Z,15.30
2019-03-24T08:51:59.981Z,14.80
2019-03-24T08:54:32.351Z,14.30
2019-03-24T08:57:03.718Z,14.20
2019-03-24T08:59:35.414Z,14.40
2019-03-24T09:02:07.086Z,14.60
2019-03-24T09:04:38.398Z,14.40
2019-03-24T09:07:09.684Z,14.40
2019-03-24T09:09:41.040Z,14.60
2019-03-24T09:12:12.327Z,14.60
2019-03-24T09:14:43.593Z,14.70
2019-03-24T09:17:14.882Z,14.90
2019-03-24T09:19:46.143Z,15.40
2019-03-24T09:22:17.420Z,16.00
2019-03-24T09:24:50.924Z,16.70
2019-03-24T09:27:22.555Z,16.90
2019-03-24T09:29:53.837Z,16.30
2019-03-24T09:32:25.383Z,16.30
2019-03-24T09:34:56.753Z,16.60
2019-03-24T09:37:30.034Z,18.00
2019-03-24T09:40:02.523Z,18.60
2019-03-24T09:42:33.915Z,18.60
2019-03-24T09:45:05.444Z,18.80
2019-03-24T09:47:37.041Z,18.90
2019-03-24T09:50:08.538Z,18.60
2019-03-24T09:52:39.937Z,18.70
2019-03-24T09:55:11.395Z,18.20
2019-03-24T09:57:42.990Z,17.40
2019-03-24T10:00:14.811Z,16.90
2019-03-24T10:02:46.116Z,16.70
2019-03-24T10:05:17.433Z,16.80
2019-03-24T10:07:49.322Z,17.30
2019-03-24T10:10:20.978Z,18.50
2019-03-24T10:12:52.333Z,19.10
2019-03-24T10:15:23.727Z,19.80
2019-03-24T10:17:55.349Z,21.00
2019-03-24T10:20:27.005Z,21.90
2019-03-24T10:22:58.626Z,22.90
2019-03-24T10:25:30.419Z,23.70
2019-03-24T10:28:01.685Z,24.00
2019-03-24T10:30:32.947Z,23.70
2019-03-24T10:33:04.294Z,23.60
2019-03-24T10:35:36.737Z,23.10
2019-03-24T10:38:08.321Z,23.00
2019-03-24T10:40:40.173Z,22.50
2019-03-24T10:43:11.827Z,22.70
2019-03-24T10:45:43.143Z,22.40
2019-03-24T10:48:15.515Z,22.00
2019-03-24T10:50:48.134Z,21.80
2019-03-24T10:53:19.413Z,21.00
2019-03-24T10:55:50.761Z,19.80
2019-03-24T10:58:22.263Z,19.30
2019-03-24T11:00:53.929Z,19.20
2019-03-24T11:03:25.183Z,18.80
2019-03-24T11:05:56.465Z,19.30
2019-03-24T11:08:27.804Z,20.30
2019-03-24T11:10:59.093Z,21.20
2019-03-24T11:13:31.510Z,21.80
2019-03-24T11:16:02.795Z,21.80
2019-03-24T11:18:34.058Z,21.90
2019-03-24T11:21:05.691Z,21.80
2019-03-24T11:23:36.976Z,21.80
2019-03-24T11:26:08.309Z,21.60
2019-03-24T11:28:39.624Z,21.00
2019-03-24T11:31:10.961Z,20.50
2019-03-24T11:33:44.888Z,20.20
2019-03-24T11:36:16.266Z,20.30
2019-03-24T11:38:47.556Z,20.60
2019-03-24T11:41:18.891Z,20.30
2019-03-24T11:43:50.265Z,19.70
2019-03-24T11:46:21.524Z,19.50
2019-03-24T11:48:53.137Z,19.50
2019-03-24T11:51:24.455Z,19.20
2019-03-24T11:53:55.771Z,19.20
2019-03-24T11:56:27.077Z,19.10
2019-03-24T11:58:58.703Z,19.30
2019-03-24T12:01:41.390Z,19.30
2019-03-24T12:04:12.859Z,19.40
2019-03-24T12:06:44.194Z,19.60
2019-03-24T12:09:15.502Z,19.80
2019-03-24T12:11:46.793Z,19.90
2019-03-24T12:14:18.175Z,19.70
2019-03-24T12:16:49.485Z,19.70
2019-03-24T12:19:20.867Z,19.90
2019-03-24T12:21:52.181Z,19.90
2019-03-24T12:24:23.552Z,20.10
2019-03-24T12:26:54.843Z,20.10
2019-03-24T12:29:26.158Z,20.00
2019-03-24T12:31:57.485Z,19.70
2019-03-24T12:34:28.836Z,19.80
2019-03-24T12:37:00.114Z,20.10
2019-03-24T12:39:31.413Z,20.20
2019-03-24T12:42:02.818Z,20.10
2019-03-24T12:44:34.111Z,19.70
2019-03-24T12:47:05.515Z,19.60
2019-03-24T12:49:37.460Z,19.80
2019-03-24T12:52:08.906Z,19.70
2019-03-24T12:54:40.284Z,19.50
2019-03-24T12:57:11.560Z,19.70
2019-03-24T12:59:42.866Z,19.70
2019-03-24T13:02:14.234Z,19.90
2019-03-24T13:04:45.541Z,19.70
2019-03-24T13:07:16.946Z,19.70
2019-03-24T13:09:48.411Z,19.60
2019-03-24T13:12:19.959Z,19.30
2019-03-24T13:14:51.287Z,19.00
2019-03-24T13:17:22.628Z,18.80
2019-03-24T13:19:54.115Z,18.60
2019-03-24T13:22:25.932Z,18.50
2019-03-24T13:24:57.329Z,18.20
2019-03-24T13:27:28.689Z,18.20
2019-03-24T13:30:00.018Z,17.80
2019-03-24T13:32:31.619Z,17.60
2019-03-24T13:35:03.031Z,17.40
2019-03-24T13:37:34.323Z,17.20
2019-03-24T13:40:05.899Z,16.80
2019-03-24T13:42:37.215Z,16.60
2019-03-24T13:45:08.640Z,16.60
2019-03-24T13:47:39.965Z,16.20
2019-03-24T13:50:11.456Z,15.80
2019-03-24T13:52:42.753Z,15.80
2019-03-24T13:55:14.256Z,17.20
2019-03-24T13:57:45.530Z,18.80
2019-03-24T14:00:19.159Z,19.60
2019-03-24T14:02:50.773Z,19.50
2019-03-24T14:05:22.151Z,18.90
2019-03-24T14:07:53.446Z,18.50
2019-03-24T14:10:25.698Z,18.40
2019-03-24T14:12:57.103Z,18.30
2019-03-24T14:15:28.389Z,18.30
2019-03-24T14:17:59.853Z,18.60
2019-03-24T14:20:42.449Z,18.00
2019-03-24T14:23:04.339Z,17.50
2019-03-24T14:25:35.672Z,17.20
2019-03-24T14:28:07.060Z,16.70
2019-03-24T14:30:43.289Z,16.40
2019-03-24T14:33:15.440Z,16.30
2019-03-24T14:35:47.047Z,16.30
2019-03-24T14:38:18.312Z,16.20
2019-03-24T14:40:49.751Z,16.10
2019-03-24T14:43:21.398Z,16.20
2019-03-24T14:45:52.705Z,16.30
2019-03-24T14:48:23.993Z,17.20
2019-03-24T14:50:55.688Z,19.30
2019-03-24T14:53:26.990Z,20.90
2019-03-24T14:55:58.318Z,22.00
2019-03-24T14:58:29.622Z,22.60
2019-03-24T15:01:00.998Z,22.90
2019-03-24T15:03:33.690Z,23.00
2019-03-24T15:06:05.242Z,23.00
2019-03-24T15:08:36.522Z,22.70
2019-03-24T15:11:07.904Z,22.50
2019-03-24T15:13:39.188Z,21.90
2019-03-24T15:16:10.490Z,22.20
2019-03-24T15:18:41.783Z,22.50
2019-03-24T15:21:13.086Z,22.90
2019-03-24T15:23:44.402Z,23.00
2019-03-24T15:26:15.798Z,23.00
2019-03-24T15:28:47.326Z,23.10
2019-03-24T15:31:18.628Z,22.90
2019-03-24T15:33:49.920Z,22.80
2019-03-24T15:36:21.219Z,22.70
2019-03-24T15:38:52.572Z,22.50
2019-03-24T15:41:23.951Z,22.50
2019-03-24T15:43:55.385Z,22.60
2019-03-24T15:46:26.669Z,22.70
2019-03-24T15:48:57.963Z,22.40
2019-03-24T15:51:29.290Z,22.50
2019-03-24T15:54:00.651Z,22.50
2019-03-24T15:56:31.991Z,22.50
2019-03-24T15:59:03.391Z,22.30
2019-03-24T16:01:34.696Z,21.00
2019-03-24T16:04:06.141Z,19.30
2019-03-24T16:06:37.526Z,18.10
2019-03-24T16:09:09.678Z,17.30
2019-03-24T16:11:40.977Z,16.40
2019-03-24T16:14:13.312Z,16.00
2019-03-24T16:16:44.621Z,15.70
2019-03-24T16:19:15.941Z,15.30
2019-03-24T16:21:47.295Z,15.10
2019-03-24T16:24:18.587Z,15.00
2019-03-24T16:26:49.907Z,14.90
2019-03-24T16:29:21.556Z,14.80
2019-03-24T16:31:52.917Z,14.60
2019-03-24T16:34:24.259Z,14.50
2019-03-24T16:36:55.615Z,14.20
2019-03-24T16:39:26.922Z,14.10
2019-03-24T16:41:58.261Z,13.90
2019-03-24T16:44:29.669Z,13.90
2019-03-24T16:47:00.967Z,13.70
2019-03-24T16:49:32.310Z,13.50
2019-03-24T16:52:03.750Z,13.20
2019-03-24T16:54:35.033Z,13.00
2019-03-24T16:57:06.357Z,12.90
2019-03-24T16:59:37.750Z,12.70
2019-03-24T17:02:09.113Z,12.60
2019-03-24T17:04:40.510Z,12.40
2019-03-24T17:07:11.866Z,12.30
2019-03-24T17:09:43.169Z,12.30
2019-03-24T17:12:14.955Z,12.20
2019-03-24T17:14:46.373Z,12.10
2019-03-24T17:17:18.022Z,12.00
2019-03-24T17:19:49.435Z,12.00
2019-03-24T17:22:21.158Z,11.90
2019-03-24T17:24:52.779Z,11.90
2019-03-24T17:27:24.107Z,11.80
2019-03-24T17:29:55.412Z,11.70
2019-03-24T17:32:26.708Z,11.60
2019-03-24T17:35:03.880Z,11.50
2019-03-24T17:37:35.287Z,11.50
2019-03-24T17:40:07.328Z,11.30
2019-03-24T17:42:38.829Z,11.30
2019-03-24T17:45:11.199Z,11.20
2019-03-24T17:47:42.504Z,11.10
2019-03-24T17:50:14.479Z,11.10
2019-03-24T17:52:46.277Z,11.00
2019-03-24T17:55:27.160Z,11.00
2019-03-24T17:57:51.985Z,10.90
2019-03-24T18:00:38.112Z,10.80
2019-03-24T18:03:09.501Z,10.80
2019-03-24T18:05:40.969Z,10.70
2019-03-24T18:08:12.370Z,10.70
2019-03-24T18:10:44.862Z,10.60
2019-03-24T18:13:16.195Z,10.60
2019-03-24T18:15:47.468Z,10.50
2019-03-24T18:18:19.043Z,10.50
2019-03-24T18:20:50.370Z,10.40
2019-03-24T18:23:21.639Z,10.40
2019-03-24T18:25:53.102Z,10.20
2019-03-24T18:28:24.461Z,10.20
2019-03-24T18:30:55.973Z,10.20
2019-03-24T18:33:27.252Z,10.10
2019-03-24T18:35:58.546Z,10.10
2019-03-24T18:38:29.778Z,10.00
2019-03-24T18:41:01.786Z,10.00
2019-03-24T18:43:33.134Z,9.90
2019-03-24T18:46:04.518Z,9.90
2019-03-24T18:48:36.209Z,9.90
2019-03-24T18:51:07.473Z,9.90
2019-03-24T18:53:38.760Z,9.80
2019-03-24T18:56:10.427Z,9.80
2019-03-24T18:58:41.747Z,9.80
2019-03-24T19:01:13.353Z,9.70
2019-03-24T19:03:44.690Z,9.70
2019-03-24T19:06:15.963Z,9.70
2019-03-24T19:08:47.214Z,9.70
2019-03-24T19:11:18.488Z,9.70
2019-03-24T19:13:49.812Z,9.60
2019-03-24T19:16:21.070Z,9.60
2019-03-24T19:18:52.633Z,9.50
2019-03-24T19:21:23.917Z,9.40
2019-03-24T19:23:55.992Z,9.40
2019-03-24T19:26:27.539Z,9.40
2019-03-24T19:28:59.826Z,9.30
2019-03-24T19:31:31.132Z,9.30
2019-03-24T19:34:02.492Z,9.30
2019-03-24T19:36:34.583Z,9.20
2019-03-24T19:39:08.693Z,9.10
2019-03-24T19:41:40.031Z,9.10
2019-03-24T19:44:11.905Z,9.10
2019-03-24T19:46:43.188Z,9.00
2019-03-24T19:49:14.432Z,9.00
2019-03-24T19:51:45.713Z,8.90
2019-03-24T19:54:16.994Z,8.90
2019-03-24T19:56:48.253Z,8.80
2019-03-24T19:59:19.639Z,8.80
2019-03-24T20:01:51.963Z,8.80
2019-03-24T20:04:24.185Z,8.80
2019-03-24T20:06:55.470Z,8.80
2019-03-24T20:09:26.752Z,8.70
2019-03-24T20:11:58.012Z,8.70
2019-03-24T20:14:29.441Z,8.60
2019-03-24T20:17:00.703Z,8.50
2019-03-24T20:19:31.979Z,8.60
2019-03-24T20:22:03.253Z,8.50
2019-03-24T20:24:34.962Z,8.50
2019-03-24T20:27:06.234Z,8.40
2019-03-24T20:29:37.501Z,8.50
2019-03-24T20:32:08.853Z,8.40
2019-03-24T20:34:40.138Z,8.40
2019-03-24T20:37:11.428Z,8.40
2019-03-24T20:39:42.735Z,8.30
2019-03-24T20:42:14.022Z,8.30
2019-03-24T20:44:45.284Z,8.30
2019-03-24T20:47:16.552Z,8.30
2019-03-24T20:49:48.774Z,8.20
2019-03-24T20:52:20.983Z,8.20
2019-03-24T20:54:52.547Z,8.10
2019-03-24T20:57:23.873Z,8.10
2019-03-24T20:59:55.217Z,8.10
2019-03-24T21:02:26.502Z,8.00
2019-03-24T21:04:57.803Z,8.00
2019-03-24T21:07:29.088Z,8.00
2019-03-24T21:10:00.537Z,7.90
2019-03-24T21:12:31.904Z,7.90
2019-03-24T21:15:03.262Z,7.90
2019-03-24T21:17:35.564Z,7.80
2019-03-24T21:20:07.552Z,7.80
2019-03-24T21:22:38.976Z,7.80
2019-03-24T21:25:10.717Z,7.70
2019-03-24T21:27:42.081Z,7.70
2019-03-24T21:30:14.711Z,7.80
2019-03-24T21:32:46.147Z,7.70
2019-03-24T21:35:17.675Z,7.60
2019-03-24T21:37:48.929Z,7.60
2019-03-24T21:40:20.421Z,7.50
2019-03-24T21:42:51.722Z,7.40
2019-03-24T21:45:22.972Z,7.40
2019-03-24T21:47:54.572Z,7.40
2019-03-24T21:50:26.208Z,7.40
2019-03-24T21:52:57.769Z,7.40
2019-03-24T21:55:29.791Z,7.30
2019-03-24T21:58:04.745Z,7.30
2019-03-24T22:00:37.642Z,7.30
2019-03-24T22:03:09.161Z,7.30
2019-03-24T22:05:40.904Z,7.20
2019-03-24T22:08:12.202Z,7.20
2019-03-24T22:10:43.560Z,7.20
2019-03-24T22:13:15.082Z,7.20
2019-03-24T22:15:46.370Z,7.10
2019-03-24T22:18:17.630Z,7.10
2019-03-24T22:20:49.426Z,7.10
2019-03-24T22:23:21.193Z,7.10
2019-03-24T22:25:52.721Z,7.10
2019-03-24T22:28:24.358Z,7.10
2019-03-24T22:30:56.568Z,7.00
2019-03-24T22:33:29.059Z,7.00
2019-03-24T22:36:00.653Z,7.00
2019-03-24T22:38:31.995Z,7.00
2019-03-24T22:41:03.298Z,7.00
2019-03-24T22:43:34.558Z,7.00
2019-03-24T22:46:06.308Z,6.90
2019-03-24T22:48:37.547Z,6.80
2019-03-24T22:51:08.802Z,6.80
2019-03-24T22:53:40.209Z,6.80
2019-03-24T22:56:11.516Z,6.80
2019-03-24T22:58:42.807Z,6.70
2019-03-24T23:01:15.761Z,6.70
2019-03-24T23:03:47.475Z,6.70
2019-03-24T23:06:18.770Z,6.70
2019-03-24T23:08:50.112Z,6.60
2019-03-24T23:11:21.466Z,6.60
2019-03-24T23:13:52.706Z,6.60
2019-03-24T23:16:24.968Z,6.60
2019-03-24T23:18:56.224Z,6.60
2019-03-24T23:21:27.502Z,6.70
2019-03-24T23:23:59.076Z,6.70
2019-03-24T23:26:30.395Z,6.70
2019-03-24T23:29:01.684Z,6.60
2019-03-24T23:31:34.216Z,6.60
2019-03-24T23:34:06.163Z,6.60
2019-03-24T23:36:37.850Z,6.50
2019-03-24T23:39:09.577Z,6.50
2019-03-24T23:41:41.115Z,6.40
2019-03-24T23:44:12.415Z,6.40
2019-03-24T23:46:43.797Z,6.40
2019-03-24T23:49:15.046Z,6.50
2019-03-24T23:51:46.746Z,6.50
2019-03-24T23:54:26.570Z,6.50
2019-03-24T23:56:50.974Z,6.60
2019-03-24T23:59:22.255Z,6.60
